createdAt,value
2022-10-05T00:02:12.005Z,100.00
2022-10-05T00:05:16.869Z,100.00
2022-10-05T00:08:33.643Z,100.00
2022-10-05T00:11:40.512Z,100.00
2022-10-05T00:14:49.187Z,100.00
2022-10-05T00:17:54.724Z,100.00
2022-10-05T00:21:00.925Z,100.00
2022-10-05T00:24:06.509Z,100.00
2022-10-05T00:27:13.675Z,100.00
2022-10-05T00:30:32.001Z,100.00
2022-10-05T00:33:39.219Z,100.00
2022-10-05T00:36:46.065Z,100.00
2022-10-05T00:39:53.217Z,100.00
2022-10-05T00:43:32.058Z,100.00
2022-10-05T00:47:01.135Z,100.00
2022-10-05T00:50:55.776Z,100.00
2022-10-05T00:54:25.173Z,100.00
2022-10-05T00:57:50.531Z,100.00
2022-10-05T01:01:04.882Z,100.00
2022-10-05T01:04:23.551Z,100.00
2022-10-05T01:07:52.864Z,100.00
2022-10-05T01:11:09.473Z,100.00
2022-10-05T01:14:23.882Z,100.00
2022-10-05T01:17:56.399Z,100.00
2022-10-05T01:21:36.748Z,100.00
2022-10-05T01:24:46.593Z,100.00
2022-10-05T01:28:15.023Z,100.00
2022-10-05T01:31:26.912Z,100.00
2022-10-05T01:35:00.307Z,100.00
2022-10-05T01:38:42.709Z,100.00
2022-10-05T01:41:55.596Z,100.00
2022-10-05T01:45:30.596Z,100.00
2022-10-05T01:49:11.594Z,100.00
2022-10-05T01:52:36.640Z,100.00
2022-10-05T01:56:05.432Z,100.00
2022-10-05T01:59:32.229Z,100.00
2022-10-05T02:02:38.375Z,100.00
2022-10-05T02:05:51.785Z,100.00
2022-10-05T02:09:42.024Z,100.00
2022-10-05T02:12:51.834Z,100.00
2022-10-05T02:16:02.287Z,100.00
2022-10-05T02:19:40.172Z,100.00
2022-10-05T02:22:54.093Z,100.00
2022-10-05T02:26:01.195Z,100.00
2022-10-05T02:29:30.402Z,100.00
2022-10-05T02:32:40.382Z,100.00
2022-10-05T02:35:46.628Z,100.00
2022-10-05T02:39:05.875Z,100.00
2022-10-05T02:42:40.635Z,100.00
2022-10-05T02:46:13.902Z,100.00
2022-10-05T02:49:26.472Z,100.00
2022-10-05T02:52:41.858Z,100.00
2022-10-05T02:56:14.613Z,100.00
2022-10-05T02:59:23.579Z,100.00
2022-10-05T03:02:58.070Z,100.00
2022-10-05T03:06:18.269Z,100.00
2022-10-05T03:09:25.631Z,100.00
2022-10-05T03:12:44.554Z,100.00
2022-10-05T03:16:15.574Z,100.00
2022-10-05T03:19:45.659Z,100.00
2022-10-05T03:23:13.364Z,100.00
2022-10-05T03:26:35.053Z,100.00
2022-10-05T03:30:00.010Z,100.00
2022-10-05T03:33:43.569Z,100.00
2022-10-05T03:37:09.376Z,100.00
2022-10-05T03:40:58.310Z,100.00
2022-10-05T03:44:39.881Z,100.00
2022-10-05T03:48:08.597Z,100.00
2022-10-05T03:51:45.450Z,100.00
2022-10-05T03:55:00.894Z,100.00
2022-10-05T03:58:06.410Z,100.00
2022-10-05T04:01:14.912Z,100.00
2022-10-05T04:04:23.294Z,100.00
2022-10-05T04:07:54.062Z,100.00
2022-10-05T04:11:08.675Z,100.00
2022-10-05T04:14:28.784Z,100.00
2022-10-05T04:17:37.445Z,100.00
2022-10-05T04:20:55.333Z,100.00
2022-10-05T04:24:23.042Z,100.00
2022-10-05T04:27:47.837Z,100.00
2022-10-05T04:30:55.272Z,100.00
2022-10-05T04:34:03.870Z,100.00
2022-10-05T04:37:15.597Z,100.00
2022-10-05T04:40:42.236Z,100.00
2022-10-05T04:44:29.349Z,100.00
2022-10-05T04:47:54.487Z,100.00
2022-10-05T04:51:23.536Z,100.00
2022-10-05T04:55:06.678Z,100.00
2022-10-05T04:58:42.420Z,100.00
2022-10-05T05:02:04.495Z,100.00
2022-10-05T05:06:05.020Z,100.00
2022-10-05T05:09:27.355Z,100.00
2022-10-05T05:12:54.197Z,100.00
2022-10-05T05:16:32.214Z,100.00
2022-10-05T05:19:47.843Z,100.00
2022-10-05T05:23:40.397Z,100.00
2022-10-05T05:27:08.581Z,100.00
2022-10-05T05:30:33.315Z,100.00
2022-10-05T05:33:45.317Z,100.00
2022-10-05T05:37:01.566Z,100.00
2022-10-05T05:40:24.013Z,100.00
2022-10-05T05:43:41.399Z,100.00
2022-10-05T05:47:03.604Z,100.00
2022-10-05T05:50:24.113Z,100.00
2022-10-05T05:53:37.015Z,100.00
2022-10-05T05:56:51.509Z,100.00
2022-10-05T06:00:05.216Z,100.00
2022-10-05T06:03:31.058Z,100.00
2022-10-05T06:06:43.897Z,100.00
2022-10-05T06:10:06.766Z,100.00
2022-10-05T06:13:19.399Z,100.00
2022-10-05T06:16:52.457Z,99.19
2022-10-05T06:20:03.972Z,97.54
2022-10-05T06:23:07.636Z,95.98
2022-10-05T06:26:27.217Z,95.24
2022-10-05T06:29:35.238Z,93.97
2022-10-05T06:33:01.690Z,93.43
2022-10-05T06:36:49.083Z,92.32
2022-10-05T06:40:31.140Z,91.71
2022-10-05T06:43:56.567Z,90.76
2022-10-05T06:47:44.803Z,90.67
2022-10-05T06:50:58.860Z,89.39
2022-10-05T06:54:25.594Z,88.03
2022-10-05T06:58:07.563Z,86.58
2022-10-05T07:01:19.759Z,87.12
2022-10-05T07:04:43.319Z,85.81
2022-10-05T07:08:06.666Z,85.50
2022-10-05T07:11:43.068Z,85.08
2022-10-05T07:15:12.580Z,83.55
2022-10-05T07:18:32.962Z,82.99
2022-10-05T07:25:28.479Z,80.93
2022-10-05T07:28:44.553Z,80.14
2022-10-05T07:32:13.452Z,78.36
2022-10-05T07:36:13.113Z,78.56
2022-10-05T07:39:58.420Z,76.32
2022-10-05T07:42:57.124Z,73.30
2022-10-05T07:46:11.430Z,73.50
2022-10-05T07:49:30.052Z,72.82
2022-10-05T07:52:39.846Z,72.93
2022-10-05T07:55:50.431Z,72.40
2022-10-05T07:59:11.491Z,71.00
2022-10-05T08:02:25.722Z,71.77
2022-10-05T08:05:36.144Z,72.63
2022-10-05T08:09:04.109Z,70.37
2022-10-05T08:12:18.155Z,70.32
2022-10-05T08:15:39.979Z,70.09
2022-10-05T08:19:29.008Z,70.42
2022-10-05T08:22:39.709Z,69.81
2022-10-05T08:25:51.857Z,71.06
2022-10-05T08:29:04.808Z,72.14
2022-10-05T08:32:15.564Z,72.34
2022-10-05T08:35:50.971Z,72.55
2022-10-05T08:38:58.855Z,73.12
2022-10-05T08:42:32.523Z,73.80
2022-10-05T08:45:52.339Z,73.58
2022-10-05T08:49:08.371Z,74.87
2022-10-05T08:53:10.708Z,75.88
2022-10-05T08:56:41.338Z,76.32
2022-10-05T09:00:25.486Z,74.76
2022-10-05T09:03:58.205Z,74.08
2022-10-05T09:07:29.839Z,74.70
2022-10-05T09:11:00.460Z,72.51
2022-10-05T09:14:29.994Z,69.95
2022-10-05T09:18:01.570Z,67.06
2022-10-05T09:21:37.508Z,67.83
2022-10-05T09:24:53.773Z,69.49
2022-10-05T09:28:14.304Z,71.11
2022-10-05T09:31:34.557Z,73.33
2022-10-05T09:34:54.951Z,72.54
2022-10-05T09:38:19.743Z,70.30
2022-10-05T09:41:55.662Z,71.60
2022-10-05T09:45:31.402Z,70.96
2022-10-05T09:49:01.916Z,72.34
2022-10-05T09:52:35.208Z,72.77
2022-10-05T09:56:12.374Z,72.18
2022-10-05T09:59:59.200Z,74.13
2022-10-05T10:03:39.855Z,73.48
2022-10-05T10:07:13.288Z,71.49
2022-10-05T10:10:51.183Z,70.71
2022-10-05T10:14:08.555Z,69.39
2022-10-05T10:17:23.434Z,68.65
2022-10-05T10:20:35.146Z,67.72
2022-10-05T10:23:57.741Z,67.04
2022-10-05T10:27:52.583Z,66.74
2022-10-05T10:31:46.461Z,65.65
2022-10-05T10:35:34.778Z,65.44
2022-10-05T10:38:46.683Z,65.19
2022-10-05T10:41:59.938Z,65.95
2022-10-05T10:45:44.563Z,66.12
2022-10-05T10:49:18.158Z,64.80
2022-10-05T10:52:29.341Z,63.56
2022-10-05T10:56:09.902Z,62.86
2022-10-05T10:59:44.109Z,63.13
2022-10-05T11:03:24.795Z,63.84
2022-10-05T11:06:52.912Z,65.30
2022-10-05T11:10:18.926Z,65.69
2022-10-05T11:13:49.600Z,64.77
2022-10-05T11:17:19.529Z,63.19
2022-10-05T11:20:44.290Z,63.38
2022-10-05T11:24:13.114Z,62.78
2022-10-05T11:27:35.496Z,62.78
2022-10-05T11:31:21.845Z,64.11
2022-10-05T11:34:50.786Z,65.17
2022-10-05T11:38:24.713Z,64.71
2022-10-05T11:41:55.139Z,63.84
2022-10-05T11:45:42.962Z,63.80
2022-10-05T11:49:07.036Z,61.60
2022-10-05T11:52:30.036Z,60.58
2022-10-05T11:56:12.124Z,61.00
2022-10-05T11:59:28.042Z,62.10
2022-10-05T12:02:52.375Z,63.41
2022-10-05T12:06:10.010Z,57.95
2022-10-05T12:09:55.931Z,58.79
2022-10-05T12:13:07.093Z,59.47
2022-10-05T12:16:26.291Z,58.18
2022-10-05T12:19:43.916Z,57.52
2022-10-05T12:22:54.771Z,58.21
2022-10-05T12:26:17.691Z,58.63
2022-10-05T12:29:30.750Z,58.80
2022-10-05T12:32:58.124Z,58.63
2022-10-05T12:36:26.325Z,58.16
2022-10-05T12:39:48.241Z,57.84
2022-10-05T12:43:28.489Z,58.12
2022-10-05T12:47:07.772Z,58.73
2022-10-05T12:50:22.740Z,58.95
2022-10-05T12:53:45.651Z,58.05
2022-10-05T12:57:07.768Z,55.92
2022-10-05T13:00:25.888Z,56.18
2022-10-05T13:03:38.549Z,56.68
2022-10-05T13:07:03.929Z,56.50
2022-10-05T13:10:35.058Z,57.54
2022-10-05T13:13:58.455Z,56.92
2022-10-05T13:17:22.409Z,57.71
2022-10-05T13:20:38.837Z,56.30
2022-10-05T13:23:53.714Z,56.39
2022-10-05T13:27:00.131Z,54.91
2022-10-05T13:30:19.877Z,54.46
2022-10-05T13:33:30.013Z,54.17
2022-10-05T13:36:52.409Z,54.41
2022-10-05T13:40:53.159Z,55.85
2022-10-05T13:44:29.424Z,56.07
2022-10-05T13:47:48.403Z,56.85
2022-10-05T13:51:08.347Z,56.56
2022-10-05T13:55:01.399Z,57.23
2022-10-05T13:58:29.745Z,57.10
2022-10-05T14:02:03.192Z,57.77
2022-10-05T14:05:17.187Z,57.68
2022-10-05T14:08:31.936Z,58.29
2022-10-05T14:11:49.378Z,59.14
2022-10-05T14:15:04.056Z,59.94
2022-10-05T14:18:09.857Z,60.94
2022-10-05T14:21:32.151Z,61.71
2022-10-05T14:24:45.962Z,62.47
2022-10-05T14:27:45.210Z,62.81
2022-10-05T14:30:55.546Z,62.85
2022-10-05T14:33:59.264Z,62.84
2022-10-05T14:37:11.809Z,62.87
2022-10-05T14:40:22.490Z,62.92
2022-10-05T14:43:34.189Z,62.96
2022-10-05T14:46:39.012Z,63.11
2022-10-05T14:49:48.231Z,63.30
2022-10-05T14:52:57.675Z,63.71
2022-10-05T14:56:08.404Z,64.07
2022-10-05T14:59:31.052Z,64.45
2022-10-05T15:03:21.665Z,65.05
2022-10-05T15:06:33.348Z,65.49
2022-10-05T15:10:10.022Z,66.13
2022-10-05T15:13:31.699Z,66.59
2022-10-05T15:16:49.394Z,67.25
2022-10-05T15:20:36.088Z,67.71
2022-10-05T15:23:54.225Z,68.21
2022-10-05T15:27:15.264Z,68.73
2022-10-05T15:30:29.411Z,69.26
2022-10-05T15:34:00.526Z,69.77
2022-10-05T15:37:22.215Z,70.06
2022-10-05T15:40:50.342Z,70.70
2022-10-05T15:44:16.566Z,71.33
2022-10-05T15:47:26.232Z,71.99
2022-10-05T15:50:42.876Z,72.49
2022-10-05T15:53:56.101Z,72.94
2022-10-05T15:57:24.292Z,73.57
2022-10-05T16:00:33.004Z,74.02
2022-10-05T16:03:50.529Z,74.47
2022-10-05T16:07:30.032Z,75.35
2022-10-05T16:10:36.732Z,75.94
2022-10-05T16:13:58.796Z,76.18
2022-10-05T16:17:24.722Z,76.35
2022-10-05T16:21:07.060Z,76.67
2022-10-05T16:24:31.247Z,76.96
2022-10-05T16:28:00.481Z,77.32
2022-10-05T16:31:18.443Z,77.67
2022-10-05T16:35:01.232Z,78.02
2022-10-05T16:38:47.071Z,78.21
2022-10-05T16:42:04.005Z,78.61
2022-10-05T16:45:44.430Z,79.45
2022-10-05T16:49:02.797Z,79.87
2022-10-05T16:52:16.354Z,80.64
2022-10-05T16:55:35.216Z,80.86
2022-10-05T16:58:44.376Z,81.57
2022-10-05T17:02:06.001Z,82.02
2022-10-05T17:05:53.415Z,82.75
2022-10-05T17:09:21.510Z,83.69
2022-10-05T17:12:52.107Z,84.40
2022-10-05T17:16:20.459Z,85.00
2022-10-05T17:19:47.604Z,85.43
2022-10-05T17:23:08.593Z,86.11
2022-10-05T17:26:48.763Z,86.52
2022-10-05T17:30:10.083Z,87.18
2022-10-05T17:33:40.016Z,87.94
2022-10-05T17:37:04.406Z,88.34
2022-10-05T17:40:10.556Z,89.24
2022-10-05T17:43:33.541Z,89.91
2022-10-05T17:46:58.765Z,90.29
2022-10-05T17:50:30.857Z,90.53
2022-10-05T17:53:57.193Z,91.00
2022-10-05T17:57:14.251Z,91.76
2022-10-05T18:00:23.030Z,92.20
2022-10-05T18:03:58.212Z,92.67
2022-10-05T18:07:15.769Z,93.23
2022-10-05T18:10:41.768Z,93.93
2022-10-05T18:13:56.131Z,94.36
2022-10-05T18:17:19.177Z,94.61
2022-10-05T18:20:39.827Z,95.04
2022-10-05T18:23:41.949Z,95.41
2022-10-05T18:27:19.348Z,95.44
2022-10-05T18:30:39.249Z,95.72
2022-10-05T18:33:59.883Z,95.86
2022-10-05T18:37:36.630Z,95.85
2022-10-05T18:41:02.518Z,95.98
2022-10-05T18:44:32.092Z,96.41
2022-10-05T18:48:01.631Z,96.09
2022-10-05T18:51:34.430Z,95.73
2022-10-05T18:55:08.564Z,95.35
2022-10-05T18:58:36.582Z,94.84
2022-10-05T19:02:00.788Z,94.85
2022-10-05T19:05:57.823Z,95.07
2022-10-05T19:09:36.703Z,95.49
2022-10-05T19:12:52.363Z,95.58
2022-10-05T19:16:24.050Z,95.34
2022-10-05T19:19:58.520Z,94.97
2022-10-05T19:23:19.050Z,95.31
2022-10-05T19:26:54.470Z,95.49
2022-10-05T19:30:33.864Z,95.92
2022-10-05T19:33:46.488Z,95.99
2022-10-05T19:37:05.961Z,95.69
2022-10-05T19:40:19.554Z,95.38
2022-10-05T19:43:30.734Z,95.36
2022-10-05T19:47:07.796Z,95.20
2022-10-05T19:50:18.120Z,94.99
2022-10-05T19:53:30.921Z,95.01
2022-10-05T19:56:41.491Z,95.14
2022-10-05T19:59:48.405Z,95.42
2022-10-05T20:02:54.014Z,95.42
2022-10-05T20:06:01.413Z,95.04
2022-10-05T20:09:11.204Z,95.08
2022-10-05T20:12:16.887Z,95.24
2022-10-05T20:15:45.466Z,95.35
2022-10-05T20:19:21.155Z,95.56
2022-10-05T20:22:53.790Z,95.28
2022-10-05T20:26:17.550Z,95.10
2022-10-05T20:29:24.816Z,94.76
2022-10-05T20:32:31.832Z,94.95
2022-10-05T20:35:36.966Z,94.80
2022-10-05T20:38:43.581Z,94.75
2022-10-05T20:41:49.371Z,94.88
2022-10-05T20:44:57.125Z,95.02
2022-10-05T20:48:03.789Z,95.25
2022-10-05T20:51:09.371Z,95.16
2022-10-05T20:54:07.715Z,94.85
2022-10-05T20:57:09.485Z,94.69
2022-10-05T21:00:16.501Z,94.84
2022-10-05T21:03:21.030Z,95.00
2022-10-05T21:06:31.980Z,95.24
2022-10-05T21:09:36.924Z,95.51
2022-10-05T21:12:43.144Z,95.95
2022-10-05T21:15:51.775Z,96.14
2022-10-05T21:18:58.478Z,95.90
2022-10-05T21:22:09.762Z,95.92
2022-10-05T21:25:17.064Z,95.93
2022-10-05T21:28:22.746Z,96.01
2022-10-05T21:31:28.372Z,96.09
2022-10-05T21:34:33.820Z,96.30
2022-10-05T21:37:32.210Z,96.91
2022-10-05T21:40:37.885Z,97.41
2022-10-05T21:43:43.138Z,97.68
2022-10-05T21:46:50.249Z,98.05
2022-10-05T21:49:56.332Z,98.40
2022-10-05T21:53:02.039Z,98.66
2022-10-05T21:56:03.001Z,99.05
2022-10-05T21:59:02.676Z,99.40
2022-10-05T22:02:08.113Z,99.58
2022-10-05T22:05:13.321Z,99.76
2022-10-05T22:08:19.794Z,100.00
2022-10-05T22:11:28.439Z,100.00
2022-10-05T22:14:34.600Z,100.00
2022-10-05T22:17:43.240Z,100.00
2022-10-05T22:20:49.824Z,100.00
2022-10-05T22:23:56.172Z,100.00
2022-10-05T22:27:03.702Z,100.00
2022-10-05T22:30:10.877Z,100.00
2022-10-05T22:33:16.503Z,100.00
2022-10-05T22:36:23.617Z,100.00
2022-10-05T22:39:31.135Z,100.00
2022-10-05T22:42:36.824Z,100.00
2022-10-05T22:45:42.022Z,100.00
2022-10-05T22:48:47.757Z,100.00
2022-10-05T22:51:55.109Z,100.00
2022-10-05T22:55:01.227Z,100.00
2022-10-05T22:58:07.756Z,100.00
2022-10-05T23:01:22.254Z,100.00
2022-10-05T23:04:28.255Z,100.00
2022-10-05T23:07:35.569Z,100.00
2022-10-05T23:10:41.745Z,100.00
2022-10-05T23:13:48.354Z,100.00
2022-10-05T23:16:54.674Z,100.00
2022-10-05T23:20:01.512Z,100.00
2022-10-05T23:23:08.144Z,100.00
2022-10-05T23:26:15.825Z,100.00
2022-10-05T23:29:22.542Z,100.00
2022-10-05T23:32:29.091Z,100.00
2022-10-05T23:35:29.110Z,100.00
2022-10-05T23:38:36.722Z,100.00
2022-10-05T23:41:44.293Z,100.00
2022-10-05T23:44:50.523Z,100.00
2022-10-05T23:47:57.530Z,100.00
2022-10-05T23:51:03.062Z,100.00
2022-10-05T23:54:08.595Z,100.00
2022-10-05T23:57:13.545Z,100.00
